sensor_id;sensor_type;location;lat;lon;timestamp;temperature;humidity
40123;DHT22;25832;45.490;4.912;2023-06-24T00:01:36;19.10;99.40
40123;DHT22;25832;45.490;4.912;2023-06-24T00:04:04;19.00;99.70
40123;DHT22;25832;45.490;4.912;2023-06-24T00:06:29;18.90;99.80
40123;DHT22;25832;45.490;4.912;2023-06-24T00:08:55;18.90;99.90
40123;DHT22;25832;45.490;4.912;2023-06-24T00:11:29;18.80;99.90
40123;DHT22;25832;45.490;4.912;2023-06-24T00:13:55;18.80;99.90
40123;DHT22;25832;45.490;4.912;2023-06-24T00:16:21;18.80;99.90
40123;DHT22;25832;45.490;4.912;2023-06-24T00:18:55;18.70;99.90
40123;DHT22;25832;45.490;4.912;2023-06-24T00:21:27;18.80;99.90
40123;DHT22;25832;45.490;4.912;2023-06-24T00:23:58;18.70;99.90
40123;DHT22;25832;45.490;4.912;2023-06-24T00:26:25;18.70;99.90
40123;DHT22;25832;45.490;4.912;2023-06-24T00:28:51;18.80;99.90
40123;DHT22;25832;45.490;4.912;2023-06-24T00:31:17;18.80;99.90
40123;DHT22;25832;45.490;4.912;2023-06-24T00:33:42;19.00;99.90
40123;DHT22;25832;45.490;4.912;2023-06-24T00:36:08;18.90;99.90
40123;DHT22;25832;45.490;4.912;2023-06-24T00:38:37;19.00;99.90
40123;DHT22;25832;45.490;4.912;2023-06-24T00:41:03;18.90;99.90
40123;DHT22;25832;45.490;4.912;2023-06-24T00:43:29;19.00;99.80
40123;DHT22;25832;45.490;4.912;2023-06-24T00:45:56;19.00;99.90
40123;DHT22;25832;45.490;4.912;2023-06-24T00:48:22;18.90;99.80
40123;DHT22;25832;45.490;4.912;2023-06-24T00:50:47;18.90;99.90
40123;DHT22;25832;45.490;4.912;2023-06-24T00:53:18;18.80;99.90
40123;DHT22;25832;45.490;4.912;2023-06-24T00:55:47;18.80;99.90
40123;DHT22;25832;45.490;4.912;2023-06-24T00:58:13;18.80;99.90
40123;DHT22;25832;45.490;4.912;2023-06-24T01:00:42;18.70;99.90
40123;DHT22;25832;45.490;4.912;2023-06-24T01:03:11;18.70;99.90
40123;DHT22;25832;45.490;4.912;2023-06-24T01:05:44;18.70;99.90
40123;DHT22;25832;45.490;4.912;2023-06-24T01:08:10;18.60;99.90
40123;DHT22;25832;45.490;4.912;2023-06-24T01:10:41;18.60;99.90
40123;DHT22;25832;45.490;4.912;2023-06-24T01:13:07;18.60;99.90
40123;DHT22;25832;45.490;4.912;2023-06-24T01:15:33;18.60;99.90
40123;DHT22;25832;45.490;4.912;2023-06-24T01:18:48;18.70;99.90
40123;DHT22;25832;45.490;4.912;2023-06-24T01:23:35;18.70;99.90
40123;DHT22;25832;45.490;4.912;2023-06-24T01:31:49;18.70;99.90
40123;DHT22;25832;45.490;4.912;2023-06-24T01:37:11;18.70;99.90
40123;DHT22;25832;45.490;4.912;2023-06-24T01:39:46;18.70;99.90
40123;DHT22;25832;45.490;4.912;2023-06-24T01:42:14;18.70;99.90
40123;DHT22;25832;45.490;4.912;2023-06-24T01:44:43;18.70;99.90
40123;DHT22;25832;45.490;4.912;2023-06-24T01:47:11;18.70;99.90
40123;DHT22;25832;45.490;4.912;2023-06-24T01:49:40;18.70;99.90
40123;DHT22;25832;45.490;4.912;2023-06-24T01:52:08;18.70;99.90
40123;DHT22;25832;45.490;4.912;2023-06-24T01:54:36;18.60;99.90
40123;DHT22;25832;45.490;4.912;2023-06-24T01:57:04;18.60;99.90
40123;DHT22;25832;45.490;4.912;2023-06-24T01:59:32;18.60;99.90
40123;DHT22;25832;45.490;4.912;2023-06-24T02:01:58;18.60;99.90
40123;DHT22;25832;45.490;4.912;2023-06-24T02:04:26;18.60;99.90
40123;DHT22;25832;45.490;4.912;2023-06-24T02:06:57;18.50;99.90
40123;DHT22;25832;45.490;4.912;2023-06-24T02:09:24;18.50;99.90
40123;DHT22;25832;45.490;4.912;2023-06-24T02:11:52;18.50;99.90
40123;DHT22;25832;45.490;4.912;2023-06-24T02:14:19;18.40;99.90
40123;DHT22;25832;45.490;4.912;2023-06-24T02:16:46;18.40;99.90
40123;DHT22;25832;45.490;4.912;2023-06-24T02:19:13;18.40;99.90
40123;DHT22;25832;45.490;4.912;2023-06-24T02:21:44;18.30;99.90
40123;DHT22;25832;45.490;4.912;2023-06-24T02:24:11;18.30;99.90
40123;DHT22;25832;45.490;4.912;2023-06-24T02:26:38;18.20;99.90
40123;DHT22;25832;45.490;4.912;2023-06-24T02:29:08;18.10;99.90
40123;DHT22;25832;45.490;4.912;2023-06-24T02:31:35;18.00;99.90
40123;DHT22;25832;45.490;4.912;2023-06-24T02:34:00;17.90;99.90
40123;DHT22;25832;45.490;4.912;2023-06-24T02:36:26;17.80;99.90
40123;DHT22;25832;45.490;4.912;2023-06-24T02:38:52;17.70;99.90
40123;DHT22;25832;45.490;4.912;2023-06-24T02:41:17;17.50;99.90
40123;DHT22;25832;45.490;4.912;2023-06-24T02:43:43;17.40;99.90
40123;DHT22;25832;45.490;4.912;2023-06-24T02:46:09;17.40;99.90
40123;DHT22;25832;45.490;4.912;2023-06-24T02:48:37;17.30;99.90
40123;DHT22;25832;45.490;4.912;2023-06-24T02:51:03;17.30;99.90
40123;DHT22;25832;45.490;4.912;2023-06-24T02:53:31;17.30;99.90
40123;DHT22;25832;45.490;4.912;2023-06-24T02:55:57;17.20;99.90
40123;DHT22;25832;45.490;4.912;2023-06-24T02:58:24;17.20;99.90
40123;DHT22;25832;45.490;4.912;2023-06-24T03:00:53;17.10;99.90
40123;DHT22;25832;45.490;4.912;2023-06-24T03:03:19;17.10;99.90
40123;DHT22;25832;45.490;4.912;2023-06-24T03:05:45;17.00;99.90
40123;DHT22;25832;45.490;4.912;2023-06-24T03:08:14;16.90;99.90
40123;DHT22;25832;45.490;4.912;2023-06-24T03:10:40;16.90;99.90
40123;DHT22;25832;45.490;4.912;2023-06-24T03:13:06;16.90;99.90
40123;DHT22;25832;45.490;4.912;2023-06-24T03:15:32;16.90;99.90
40123;DHT22;25832;45.490;4.912;2023-06-24T03:17:58;16.90;99.90
40123;DHT22;25832;45.490;4.912;2023-06-24T03:20:23;16.90;99.90
40123;DHT22;25832;45.490;4.912;2023-06-24T03:22:49;16.90;99.90
40123;DHT22;25832;45.490;4.912;2023-06-24T03:25:15;16.80;99.90
40123;DHT22;25832;45.490;4.912;2023-06-24T03:27:40;16.80;99.90
40123;DHT22;25832;45.490;4.912;2023-06-24T03:30:06;16.70;99.90
40123;DHT22;25832;45.490;4.912;2023-06-24T03:32:32;16.70;99.90
40123;DHT22;25832;45.490;4.912;2023-06-24T03:35:02;16.60;99.90
40123;DHT22;25832;45.490;4.912;2023-06-24T03:37:28;16.60;99.90
40123;DHT22;25832;45.490;4.912;2023-06-24T03:39:55;16.50;99.90
40123;DHT22;25832;45.490;4.912;2023-06-24T03:42:21;16.50;99.90
40123;DHT22;25832;45.490;4.912;2023-06-24T03:44:47;16.40;99.90
40123;DHT22;25832;45.490;4.912;2023-06-24T03:47:12;16.30;99.90
40123;DHT22;25832;45.490;4.912;2023-06-24T03:49:38;16.20;99.90
40123;DHT22;25832;45.490;4.912;2023-06-24T03:52:04;16.20;99.90
40123;DHT22;25832;45.490;4.912;2023-06-24T03:54:34;16.10;99.90
40123;DHT22;25832;45.490;4.912;2023-06-24T03:56:59;16.10;99.90
40123;DHT22;25832;45.490;4.912;2023-06-24T03:59:25;16.00;99.90
40123;DHT22;25832;45.490;4.912;2023-06-24T04:01:51;15.80;99.90
40123;DHT22;25832;45.490;4.912;2023-06-24T04:04:17;15.70;99.90
40123;DHT22;25832;45.490;4.912;2023-06-24T04:06:42;15.60;99.90
40123;DHT22;25832;45.490;4.912;2023-06-24T04:09:08;15.50;99.90
40123;DHT22;25832;45.490;4.912;2023-06-24T04:11:35;15.40;99.90
40123;DHT22;25832;45.490;4.912;2023-06-24T04:14:01;15.30;99.90
40123;DHT22;25832;45.490;4.912;2023-06-24T04:16:27;15.20;99.90
40123;DHT22;25832;45.490;4.912;2023-06-24T04:18:53;15.20;99.90
40123;DHT22;25832;45.490;4.912;2023-06-24T04:21:18;15.20;99.90
40123;DHT22;25832;45.490;4.912;2023-06-24T04:23:44;15.20;99.90
40123;DHT22;25832;45.490;4.912;2023-06-24T04:26:10;15.30;99.90
40123;DHT22;25832;45.490;4.912;2023-06-24T04:28:35;15.50;99.90
40123;DHT22;25832;45.490;4.912;2023-06-24T04:31:03;15.70;99.90
40123;DHT22;25832;45.490;4.912;2023-06-24T04:33:29;15.90;99.90
40123;DHT22;25832;45.490;4.912;2023-06-24T04:35:55;16.20;99.90
40123;DHT22;25832;45.490;4.912;2023-06-24T04:38:20;16.40;99.90
40123;DHT22;25832;45.490;4.912;2023-06-24T04:40:46;16.60;99.90
40123;DHT22;25832;45.490;4.912;2023-06-24T04:43:12;16.80;99.90
40123;DHT22;25832;45.490;4.912;2023-06-24T04:45:38;16.90;99.90
40123;DHT22;25832;45.490;4.912;2023-06-24T04:48:03;17.00;99.90
40123;DHT22;25832;45.490;4.912;2023-06-24T04:50:29;17.20;99.90
40123;DHT22;25832;45.490;4.912;2023-06-24T04:52:55;17.40;99.90
40123;DHT22;25832;45.490;4.912;2023-06-24T04:55:22;17.50;99.90
40123;DHT22;25832;45.490;4.912;2023-06-24T04:57:48;17.50;99.90
40123;DHT22;25832;45.490;4.912;2023-06-24T05:00:14;17.50;99.90
40123;DHT22;25832;45.490;4.912;2023-06-24T05:02:40;17.50;99.90
40123;DHT22;25832;45.490;4.912;2023-06-24T05:05:06;17.60;99.90
40123;DHT22;25832;45.490;4.912;2023-06-24T05:07:32;17.70;99.90
40123;DHT22;25832;45.490;4.912;2023-06-24T05:09:58;17.80;99.90
40123;DHT22;25832;45.490;4.912;2023-06-24T05:12:23;17.90;99.90
40123;DHT22;25832;45.490;4.912;2023-06-24T05:14:50;18.10;99.90
40123;DHT22;25832;45.490;4.912;2023-06-24T05:17:17;18.20;99.90
40123;DHT22;25832;45.490;4.912;2023-06-24T05:19:43;18.20;99.90
40123;DHT22;25832;45.490;4.912;2023-06-24T05:22:09;18.30;99.90
40123;DHT22;25832;45.490;4.912;2023-06-24T05:24:35;18.30;99.90
40123;DHT22;25832;45.490;4.912;2023-06-24T05:27:07;18.30;99.90
40123;DHT22;25832;45.490;4.912;2023-06-24T05:29:33;18.40;99.90
40123;DHT22;25832;45.490;4.912;2023-06-24T05:31:59;18.40;99.90
40123;DHT22;25832;45.490;4.912;2023-06-24T05:34:27;18.60;99.90
40123;DHT22;25832;45.490;4.912;2023-06-24T05:36:52;18.60;99.90
40123;DHT22;25832;45.490;4.912;2023-06-24T05:39:19;18.60;99.90
40123;DHT22;25832;45.490;4.912;2023-06-24T05:41:45;18.60;99.90
40123;DHT22;25832;45.490;4.912;2023-06-24T05:44:11;18.70;99.90
40123;DHT22;25832;45.490;4.912;2023-06-24T05:46:37;18.90;99.90
40123;DHT22;25832;45.490;4.912;2023-06-24T05:49:03;18.90;99.90
40123;DHT22;25832;45.490;4.912;2023-06-24T05:51:29;18.90;99.90
40123;DHT22;25832;45.490;4.912;2023-06-24T05:53:55;18.90;99.90
40123;DHT22;25832;45.490;4.912;2023-06-24T05:56:21;19.00;99.90
40123;DHT22;25832;45.490;4.912;2023-06-24T05:58:49;19.00;99.90
40123;DHT22;25832;45.490;4.912;2023-06-24T06:01:15;19.10;99.90
40123;DHT22;25832;45.490;4.912;2023-06-24T06:03:41;19.10;99.90
40123;DHT22;25832;45.490;4.912;2023-06-24T06:06:07;19.40;99.90
40123;DHT22;25832;45.490;4.912;2023-06-24T06:08:33;19.60;99.90
40123;DHT22;25832;45.490;4.912;2023-06-24T06:10:59;19.90;99.90
40123;DHT22;25832;45.490;4.912;2023-06-24T06:13:27;20.20;99.90
40123;DHT22;25832;45.490;4.912;2023-06-24T06:15:53;20.60;99.90
40123;DHT22;25832;45.490;4.912;2023-06-24T06:18:18;20.80;99.90
40123;DHT22;25832;45.490;4.912;2023-06-24T06:20:44;21.10;99.90
40123;DHT22;25832;45.490;4.912;2023-06-24T06:23:10;21.30;99.90
40123;DHT22;25832;45.490;4.912;2023-06-24T06:25:35;21.50;99.30
40123;DHT22;25832;45.490;4.912;2023-06-24T06:28:03;21.70;99.90
40123;DHT22;25832;45.490;4.912;2023-06-24T06:30:29;21.80;99.30
40123;DHT22;25832;45.490;4.912;2023-06-24T06:32:54;21.80;98.80
40123;DHT22;25832;45.490;4.912;2023-06-24T06:35:20;21.90;98.20
40123;DHT22;25832;45.490;4.912;2023-06-24T06:37:45;22.00;98.50
40123;DHT22;25832;45.490;4.912;2023-06-24T06:40:33;22.00;98.50
40123;DHT22;25832;45.490;4.912;2023-06-24T06:43:00;21.90;98.60
40123;DHT22;25832;45.490;4.912;2023-06-24T06:45:26;22.00;98.30
40123;DHT22;25832;45.490;4.912;2023-06-24T06:47:52;22.20;97.60
40123;DHT22;25832;45.490;4.912;2023-06-24T06:50:18;22.30;97.50
40123;DHT22;25832;45.490;4.912;2023-06-24T06:52:43;22.40;97.90
40123;DHT22;25832;45.490;4.912;2023-06-24T06:55:09;22.60;96.60
40123;DHT22;25832;45.490;4.912;2023-06-24T06:57:35;22.60;96.50
40123;DHT22;25832;45.490;4.912;2023-06-24T07:00:01;22.60;96.00
40123;DHT22;25832;45.490;4.912;2023-06-24T07:02:27;22.60;94.90
40123;DHT22;25832;45.490;4.912;2023-06-24T07:04:52;22.60;95.10
40123;DHT22;25832;45.490;4.912;2023-06-24T07:07:18;22.60;95.80
40123;DHT22;25832;45.490;4.912;2023-06-24T07:09:44;22.90;95.20
40123;DHT22;25832;45.490;4.912;2023-06-24T07:12:11;23.10;95.40
40123;DHT22;25832;45.490;4.912;2023-06-24T07:14:38;23.30;95.00
40123;DHT22;25832;45.490;4.912;2023-06-24T07:17:04;23.50;94.40
40123;DHT22;25832;45.490;4.912;2023-06-24T07:19:30;23.50;93.90
40123;DHT22;25832;45.490;4.912;2023-06-24T07:21:56;23.50;93.80
40123;DHT22;25832;45.490;4.912;2023-06-24T07:24:22;23.50;94.70
40123;DHT22;25832;45.490;4.912;2023-06-24T07:26:49;23.50;93.30
40123;DHT22;25832;45.490;4.912;2023-06-24T07:29:15;23.60;94.40
40123;DHT22;25832;45.490;4.912;2023-06-24T07:31:40;23.80;92.40
40123;DHT22;25832;45.490;4.912;2023-06-24T07:34:06;23.80;92.70
40123;DHT22;25832;45.490;4.912;2023-06-24T07:36:32;23.80;92.40
40123;DHT22;25832;45.490;4.912;2023-06-24T07:38:57;23.90;93.50
40123;DHT22;25832;45.490;4.912;2023-06-24T07:41:23;23.80;93.70
40123;DHT22;25832;45.490;4.912;2023-06-24T07:43:49;23.90;92.50
40123;DHT22;25832;45.490;4.912;2023-06-24T07:46:15;24.00;92.20
40123;DHT22;25832;45.490;4.912;2023-06-24T07:48:40;24.00;92.20
40123;DHT22;25832;45.490;4.912;2023-06-24T07:51:06;24.10;91.80
40123;DHT22;25832;45.490;4.912;2023-06-24T07:53:32;24.10;92.30
40123;DHT22;25832;45.490;4.912;2023-06-24T07:55:59;24.10;91.80
40123;DHT22;25832;45.490;4.912;2023-06-24T07:58:24;24.30;91.40
40123;DHT22;25832;45.490;4.912;2023-06-24T08:00:50;24.40;92.10
40123;DHT22;25832;45.490;4.912;2023-06-24T08:03:16;24.60;92.30
40123;DHT22;25832;45.490;4.912;2023-06-24T08:05:42;24.80;92.30
40123;DHT22;25832;45.490;4.912;2023-06-24T08:08:08;25.00;91.60
40123;DHT22;25832;45.490;4.912;2023-06-24T08:10:34;25.10;90.90
40123;DHT22;25832;45.490;4.912;2023-06-24T08:12:59;25.20;91.20
40123;DHT22;25832;45.490;4.912;2023-06-24T08:15:25;25.20;91.30
40123;DHT22;25832;45.490;4.912;2023-06-24T08:17:52;25.20;90.80
40123;DHT22;25832;45.490;4.912;2023-06-24T08:20:19;25.20;90.80
40123;DHT22;25832;45.490;4.912;2023-06-24T08:22:45;25.30;91.10
40123;DHT22;25832;45.490;4.912;2023-06-24T08:25:10;25.40;90.60
40123;DHT22;25832;45.490;4.912;2023-06-24T08:27:36;25.30;90.50
40123;DHT22;25832;45.490;4.912;2023-06-24T08:30:06;25.30;90.10
40123;DHT22;25832;45.490;4.912;2023-06-24T08:32:32;25.20;90.60
40123;DHT22;25832;45.490;4.912;2023-06-24T08:34:58;25.20;91.30
40123;DHT22;25832;45.490;4.912;2023-06-24T08:37:24;25.40;90.80
40123;DHT22;25832;45.490;4.912;2023-06-24T08:39:49;25.40;90.70
40123;DHT22;25832;45.490;4.912;2023-06-24T08:42:15;25.60;90.60
40123;DHT22;25832;45.490;4.912;2023-06-24T08:44:41;25.50;90.10
40123;DHT22;25832;45.490;4.912;2023-06-24T08:47:07;25.50;89.20
40123;DHT22;25832;45.490;4.912;2023-06-24T08:49:34;25.50;89.50
40123;DHT22;25832;45.490;4.912;2023-06-24T08:52:05;25.40;89.80
40123;DHT22;25832;45.490;4.912;2023-06-24T08:54:35;25.20;89.70
40123;DHT22;25832;45.490;4.912;2023-06-24T08:57:02;25.30;90.90
40123;DHT22;25832;45.490;4.912;2023-06-24T08:59:31;25.50;91.20
40123;DHT22;25832;45.490;4.912;2023-06-24T09:01:57;25.70;88.90
40123;DHT22;25832;45.490;4.912;2023-06-24T09:04:23;25.90;88.40
40123;DHT22;25832;45.490;4.912;2023-06-24T09:06:48;26.10;88.70
40123;DHT22;25832;45.490;4.912;2023-06-24T09:09:21;26.30;89.20
40123;DHT22;25832;45.490;4.912;2023-06-24T09:12:11;26.40;88.70
40123;DHT22;25832;45.490;4.912;2023-06-24T09:14:37;26.40;89.40
40123;DHT22;25832;45.490;4.912;2023-06-24T09:17:03;26.40;88.20
40123;DHT22;25832;45.490;4.912;2023-06-24T09:19:31;26.50;89.90
40123;DHT22;25832;45.490;4.912;2023-06-24T09:22:10;26.70;86.60
40123;DHT22;25832;45.490;4.912;2023-06-24T09:24:44;26.80;86.80
40123;DHT22;25832;45.490;4.912;2023-06-24T09:27:14;27.00;87.40
40123;DHT22;25832;45.490;4.912;2023-06-24T09:29:41;27.10;87.70
40123;DHT22;25832;45.490;4.912;2023-06-24T09:32:07;27.10;84.60
40123;DHT22;25832;45.490;4.912;2023-06-24T09:34:33;27.00;84.80
40123;DHT22;25832;45.490;4.912;2023-06-24T09:36:59;26.90;84.80
40123;DHT22;25832;45.490;4.912;2023-06-24T09:39:26;27.00;85.20
40123;DHT22;25832;45.490;4.912;2023-06-24T09:41:59;27.20;85.30
40123;DHT22;25832;45.490;4.912;2023-06-24T09:44:26;27.10;85.80
40123;DHT22;25832;45.490;4.912;2023-06-24T09:46:52;27.20;86.30
40123;DHT22;25832;45.490;4.912;2023-06-24T09:49:18;27.20;85.60
40123;DHT22;25832;45.490;4.912;2023-06-24T09:51:46;27.30;82.90
40123;DHT22;25832;45.490;4.912;2023-06-24T09:54:14;27.20;83.90
40123;DHT22;25832;45.490;4.912;2023-06-24T09:56:43;27.20;84.50
40123;DHT22;25832;45.490;4.912;2023-06-24T09:59:13;27.40;84.40
40123;DHT22;25832;45.490;4.912;2023-06-24T10:01:41;27.50;81.90
40123;DHT22;25832;45.490;4.912;2023-06-24T10:04:09;27.50;82.20
40123;DHT22;25832;45.490;4.912;2023-06-24T10:06:35;27.50;84.90
40123;DHT22;25832;45.490;4.912;2023-06-24T10:09:01;27.70;82.00
40123;DHT22;25832;45.490;4.912;2023-06-24T10:11:27;27.80;81.50
40123;DHT22;25832;45.490;4.912;2023-06-24T10:13:53;27.90;82.40
40123;DHT22;25832;45.490;4.912;2023-06-24T10:16:19;28.00;79.70
40123;DHT22;25832;45.490;4.912;2023-06-24T10:18:46;28.00;79.60
40123;DHT22;25832;45.490;4.912;2023-06-24T10:21:13;28.00;78.90
40123;DHT22;25832;45.490;4.912;2023-06-24T10:26:32;28.10;81.10
40123;DHT22;25832;45.490;4.912;2023-06-24T10:29:08;28.10;79.10
40123;DHT22;25832;45.490;4.912;2023-06-24T10:34:30;27.90;78.70
40123;DHT22;25832;45.490;4.912;2023-06-24T10:39:53;27.50;80.00
40123;DHT22;25832;45.490;4.912;2023-06-24T10:42:32;27.60;80.10
40123;DHT22;25832;45.490;4.912;2023-06-24T10:45:00;27.80;82.30
40123;DHT22;25832;45.490;4.912;2023-06-24T10:47:27;28.00;81.20
40123;DHT22;25832;45.490;4.912;2023-06-24T10:49:54;27.90;79.10
40123;DHT22;25832;45.490;4.912;2023-06-24T10:52:20;28.00;82.10
40123;DHT22;25832;45.490;4.912;2023-06-24T10:54:50;27.90;79.80
40123;DHT22;25832;45.490;4.912;2023-06-24T10:57:22;28.00;82.90
40123;DHT22;25832;45.490;4.912;2023-06-24T10:59:52;28.30;80.30
40123;DHT22;25832;45.490;4.912;2023-06-24T11:02:20;28.40;81.60
40123;DHT22;25832;45.490;4.912;2023-06-24T11:04:50;28.50;80.00
40123;DHT22;25832;45.490;4.912;2023-06-24T11:07:20;28.70;78.80
40123;DHT22;25832;45.490;4.912;2023-06-24T11:09:54;28.80;79.30
40123;DHT22;25832;45.490;4.912;2023-06-24T11:12:24;28.80;77.50
40123;DHT22;25832;45.490;4.912;2023-06-24T11:14:51;28.60;76.60
40123;DHT22;25832;45.490;4.912;2023-06-24T11:17:16;28.60;77.90
40123;DHT22;25832;45.490;4.912;2023-06-24T11:19:42;28.50;78.80
40123;DHT22;25832;45.490;4.912;2023-06-24T11:22:09;28.60;77.40
40123;DHT22;25832;45.490;4.912;2023-06-24T11:24:35;28.70;77.10
40123;DHT22;25832;45.490;4.912;2023-06-24T11:27:02;28.80;76.30
40123;DHT22;25832;45.490;4.912;2023-06-24T11:29:29;28.80;75.80
40123;DHT22;25832;45.490;4.912;2023-06-24T11:31:58;28.50;76.50
40123;DHT22;25832;45.490;4.912;2023-06-24T11:34:24;28.50;77.90
40123;DHT22;25832;45.490;4.912;2023-06-24T11:36:50;28.70;76.00
40123;DHT22;25832;45.490;4.912;2023-06-24T11:39:23;28.80;76.20
40123;DHT22;25832;45.490;4.912;2023-06-24T11:41:49;29.00;77.00
40123;DHT22;25832;45.490;4.912;2023-06-24T11:44:16;29.20;76.70
40123;DHT22;25832;45.490;4.912;2023-06-24T11:46:42;29.40;79.00
40123;DHT22;25832;45.490;4.912;2023-06-24T11:49:08;29.30;74.50
40123;DHT22;25832;45.490;4.912;2023-06-24T11:51:35;29.20;75.30
40123;DHT22;25832;45.490;4.912;2023-06-24T11:54:02;29.30;76.20
40123;DHT22;25832;45.490;4.912;2023-06-24T11:56:38;29.20;73.90
40123;DHT22;25832;45.490;4.912;2023-06-24T11:59:05;29.30;76.60
40123;DHT22;25832;45.490;4.912;2023-06-24T12:01:34;29.40;74.20
40123;DHT22;25832;45.490;4.912;2023-06-24T12:04:13;29.60;75.80
40123;DHT22;25832;45.490;4.912;2023-06-24T12:06:42;29.70;72.90
40123;DHT22;25832;45.490;4.912;2023-06-24T12:09:09;29.60;75.10
40123;DHT22;25832;45.490;4.912;2023-06-24T12:11:35;29.70;73.20
40123;DHT22;25832;45.490;4.912;2023-06-24T12:14:01;29.60;73.70
40123;DHT22;25832;45.490;4.912;2023-06-24T12:16:27;29.60;74.10
40123;DHT22;25832;45.490;4.912;2023-06-24T12:18:53;29.70;74.30
40123;DHT22;25832;45.490;4.912;2023-06-24T12:21:19;29.90;75.90
40123;DHT22;25832;45.490;4.912;2023-06-24T12:23:45;30.00;74.30
40123;DHT22;25832;45.490;4.912;2023-06-24T12:26:11;30.00;73.60
40123;DHT22;25832;45.490;4.912;2023-06-24T12:28:37;29.90;71.10
40123;DHT22;25832;45.490;4.912;2023-06-24T12:31:03;29.60;72.30
40123;DHT22;25832;45.490;4.912;2023-06-24T12:33:29;29.60;74.30
40123;DHT22;25832;45.490;4.912;2023-06-24T12:35:55;29.80;72.40
40123;DHT22;25832;45.490;4.912;2023-06-24T12:38:20;29.70;73.90
40123;DHT22;25832;45.490;4.912;2023-06-24T12:40:46;29.90;71.60
40123;DHT22;25832;45.490;4.912;2023-06-24T12:43:13;30.10;70.60
40123;DHT22;25832;45.490;4.912;2023-06-24T12:45:42;30.10;71.20
40123;DHT22;25832;45.490;4.912;2023-06-24T12:48:09;30.10;70.50
40123;DHT22;25832;45.490;4.912;2023-06-24T12:50:35;30.00;69.50
40123;DHT22;25832;45.490;4.912;2023-06-24T12:53:01;30.10;73.70
40123;DHT22;25832;45.490;4.912;2023-06-24T12:55:27;30.20;70.20
40123;DHT22;25832;45.490;4.912;2023-06-24T12:57:53;30.10;73.60
40123;DHT22;25832;45.490;4.912;2023-06-24T13:00:22;30.10;71.30
40123;DHT22;25832;45.490;4.912;2023-06-24T13:02:49;30.10;71.50
40123;DHT22;25832;45.490;4.912;2023-06-24T13:05:15;29.90;72.90
40123;DHT22;25832;45.490;4.912;2023-06-24T13:07:41;30.00;74.20
40123;DHT22;25832;45.490;4.912;2023-06-24T13:10:07;30.00;72.20
40123;DHT22;25832;45.490;4.912;2023-06-24T13:12:34;30.10;70.30
40123;DHT22;25832;45.490;4.912;2023-06-24T13:14:59;30.20;68.50
40123;DHT22;25832;45.490;4.912;2023-06-24T13:17:25;30.20;69.60
40123;DHT22;25832;45.490;4.912;2023-06-24T13:19:51;30.30;71.20
40123;DHT22;25832;45.490;4.912;2023-06-24T13:22:17;30.20;69.40
40123;DHT22;25832;45.490;4.912;2023-06-24T13:24:44;30.20;71.90
40123;DHT22;25832;45.490;4.912;2023-06-24T13:27:10;30.40;71.40
40123;DHT22;25832;45.490;4.912;2023-06-24T13:29:36;30.40;71.00
40123;DHT22;25832;45.490;4.912;2023-06-24T13:32:01;30.50;71.40
40123;DHT22;25832;45.490;4.912;2023-06-24T13:34:27;30.60;69.90
40123;DHT22;25832;45.490;4.912;2023-06-24T13:36:53;30.80;71.40
40123;DHT22;25832;45.490;4.912;2023-06-24T13:39:20;30.90;70.00
40123;DHT22;25832;45.490;4.912;2023-06-24T13:41:49;30.90;70.20
40123;DHT22;25832;45.490;4.912;2023-06-24T13:44:15;30.80;69.50
40123;DHT22;25832;45.490;4.912;2023-06-24T13:46:41;30.40;68.30
40123;DHT22;25832;45.490;4.912;2023-06-24T13:49:08;30.00;68.90
40123;DHT22;25832;45.490;4.912;2023-06-24T13:51:33;29.90;70.20
40123;DHT22;25832;45.490;4.912;2023-06-24T13:54:00;30.00;69.70
40123;DHT22;25832;45.490;4.912;2023-06-24T13:56:25;30.00;67.50
40123;DHT22;25832;45.490;4.912;2023-06-24T13:58:52;30.30;70.80
40123;DHT22;25832;45.490;4.912;2023-06-24T14:01:18;30.50;69.40
40123;DHT22;25832;45.490;4.912;2023-06-24T14:03:44;30.70;71.40
40123;DHT22;25832;45.490;4.912;2023-06-24T14:06:10;30.90;67.80
40123;DHT22;25832;45.490;4.912;2023-06-24T14:08:36;30.80;69.00
40123;DHT22;25832;45.490;4.912;2023-06-24T14:11:02;30.80;68.90
40123;DHT22;25832;45.490;4.912;2023-06-24T14:13:29;30.90;69.80
40123;DHT22;25832;45.490;4.912;2023-06-24T14:15:55;31.00;68.80
40123;DHT22;25832;45.490;4.912;2023-06-24T14:18:21;31.00;66.60
40123;DHT22;25832;45.490;4.912;2023-06-24T14:20:47;30.90;67.10
40123;DHT22;25832;45.490;4.912;2023-06-24T14:23:13;30.70;69.20
40123;DHT22;25832;45.490;4.912;2023-06-24T14:25:38;30.60;67.70
40123;DHT22;25832;45.490;4.912;2023-06-24T14:28:05;30.60;68.60
40123;DHT22;25832;45.490;4.912;2023-06-24T14:30:31;30.60;67.70
40123;DHT22;25832;45.490;4.912;2023-06-24T14:32:57;30.70;69.30
40123;DHT22;25832;45.490;4.912;2023-06-24T14:35:23;30.80;67.90
40123;DHT22;25832;45.490;4.912;2023-06-24T14:37:48;30.80;69.40
40123;DHT22;25832;45.490;4.912;2023-06-24T14:40:14;30.80;70.90
40123;DHT22;25832;45.490;4.912;2023-06-24T14:42:40;30.90;70.60
40123;DHT22;25832;45.490;4.912;2023-06-24T14:45:06;30.80;68.90
40123;DHT22;25832;45.490;4.912;2023-06-24T14:47:31;30.60;67.70
40123;DHT22;25832;45.490;4.912;2023-06-24T14:49:57;30.80;69.30
40123;DHT22;25832;45.490;4.912;2023-06-24T14:52:23;30.90;69.10
40123;DHT22;25832;45.490;4.912;2023-06-24T14:54:49;31.00;67.60
40123;DHT22;25832;45.490;4.912;2023-06-24T14:57:14;31.20;68.40
40123;DHT22;25832;45.490;4.912;2023-06-24T14:59:43;31.30;70.40
40123;DHT22;25832;45.490;4.912;2023-06-24T15:02:10;31.40;68.20
40123;DHT22;25832;45.490;4.912;2023-06-24T15:04:36;31.40;68.30
40123;DHT22;25832;45.490;4.912;2023-06-24T15:07:02;31.30;66.20
40123;DHT22;25832;45.490;4.912;2023-06-24T15:09:28;31.20;67.50
40123;DHT22;25832;45.490;4.912;2023-06-24T15:11:54;31.30;66.60
40123;DHT22;25832;45.490;4.912;2023-06-24T15:14:19;31.30;67.70
40123;DHT22;25832;45.490;4.912;2023-06-24T15:16:45;31.20;67.00
40123;DHT22;25832;45.490;4.912;2023-06-24T15:19:11;31.20;67.80
40123;DHT22;25832;45.490;4.912;2023-06-24T15:21:36;31.20;67.00
40123;DHT22;25832;45.490;4.912;2023-06-24T15:24:02;31.20;67.40
40123;DHT22;25832;45.490;4.912;2023-06-24T15:26:28;31.10;68.00
40123;DHT22;25832;45.490;4.912;2023-06-24T15:28:53;31.10;66.20
40123;DHT22;25832;45.490;4.912;2023-06-24T15:31:19;31.00;67.40
40123;DHT22;25832;45.490;4.912;2023-06-24T15:33:45;31.00;68.20
40123;DHT22;25832;45.490;4.912;2023-06-24T15:36:11;31.00;67.90
40123;DHT22;25832;45.490;4.912;2023-06-24T15:38:36;31.00;69.30
40123;DHT22;25832;45.490;4.912;2023-06-24T15:41:02;31.10;67.70
40123;DHT22;25832;45.490;4.912;2023-06-24T15:43:28;31.20;69.00
40123;DHT22;25832;45.490;4.912;2023-06-24T15:45:53;31.40;67.30
40123;DHT22;25832;45.490;4.912;2023-06-24T15:48:19;31.40;66.20